createdAt,value
2023-01-11T00:03:34.762Z,100.00
2023-01-11T00:08:36.496Z,100.00
2023-01-11T00:13:38.096Z,100.00
2023-01-11T00:18:41.089Z,100.00
2023-01-11T00:23:43.868Z,100.00
2023-01-11T00:28:48.420Z,100.00
2023-01-11T00:33:50.126Z,100.00
2023-01-11T00:38:53.808Z,100.00
2023-01-11T00:44:14.176Z,100.00
2023-01-11T00:49:15.848Z,100.00
2023-01-11T00:54:17.558Z,100.00
2023-01-11T00:59:19.459Z,100.00
2023-01-11T01:04:21.068Z,100.00
2023-01-11T01:09:22.763Z,100.00
2023-01-11T01:14:28.715Z,100.00
2023-01-11T01:19:31.556Z,100.00
2023-01-11T01:24:34.005Z,100.00
2023-01-11T01:29:35.599Z,100.00
2023-01-11T01:34:37.729Z,100.00
2023-01-11T01:39:39.319Z,100.00
2023-01-11T01:45:02.538Z,100.00
2023-01-11T01:50:12.983Z,100.00
2023-01-11T01:55:22.184Z,100.00
2023-01-11T02:00:23.995Z,100.00
2023-01-11T02:05:25.964Z,100.00
2023-01-11T02:10:28.910Z,100.00
2023-01-11T02:15:31.171Z,100.00
2023-01-11T02:20:43.249Z,100.00
2023-01-11T02:26:00.120Z,100.00
2023-01-11T02:31:16.692Z,100.00
2023-01-11T02:36:34.250Z,100.00
2023-01-11T02:42:20.331Z,100.00
2023-01-11T02:47:29.562Z,100.00
2023-01-11T02:53:00.482Z,100.00
2023-01-11T02:58:06.017Z,99.49
2023-01-11T03:03:24.960Z,99.83
2023-01-11T03:08:56.283Z,98.69
2023-01-11T03:14:20.130Z,98.17
2023-01-11T03:19:36.785Z,97.69
2023-01-11T03:24:41.170Z,97.78
2023-01-11T03:29:51.761Z,97.98
2023-01-11T03:35:08.311Z,98.55
2023-01-11T03:40:10.078Z,99.05
2023-01-11T03:45:11.800Z,98.47
2023-01-11T03:50:14.101Z,98.11
2023-01-11T03:55:16.841Z,98.05
2023-01-11T04:00:20.630Z,99.25
2023-01-11T04:05:22.436Z,100.00
2023-01-11T04:10:24.343Z,100.00
2023-01-11T04:15:26.070Z,99.47
2023-01-11T04:20:27.649Z,99.78
2023-01-11T04:25:29.392Z,99.12
2023-01-11T04:30:31.073Z,97.66
2023-01-11T04:35:32.709Z,97.54
2023-01-11T04:40:34.335Z,98.44
2023-01-11T04:45:35.986Z,98.74
2023-01-11T04:50:37.716Z,97.59
2023-01-11T04:55:39.347Z,97.66
2023-01-11T05:00:41.089Z,97.02
2023-01-11T05:05:42.702Z,97.88
2023-01-11T05:10:44.314Z,97.72
2023-01-11T05:15:46.099Z,96.59
2023-01-11T05:20:49.340Z,97.99
2023-01-11T05:25:50.922Z,98.88
2023-01-11T05:30:53.433Z,98.42
2023-01-11T05:36:04.492Z,98.02
2023-01-11T05:41:09.326Z,98.06
2023-01-11T05:46:10.967Z,98.24
2023-01-11T05:51:12.602Z,97.29
2023-01-11T05:56:14.214Z,98.82
2023-01-11T06:01:17.593Z,99.74
2023-01-11T06:06:20.674Z,98.98
2023-01-11T06:11:22.343Z,99.09
2023-01-11T06:16:24.148Z,98.79
2023-01-11T06:21:25.901Z,98.00
2023-01-11T06:26:27.510Z,96.22
2023-01-11T06:31:29.110Z,96.13
2023-01-11T06:36:30.737Z,96.78
2023-01-11T06:41:32.321Z,97.38
2023-01-11T06:46:34.035Z,96.60
2023-01-11T06:51:35.674Z,96.40
2023-01-11T06:56:37.277Z,96.56
2023-01-11T07:01:38.903Z,97.69
2023-01-11T07:06:40.579Z,96.81
2023-01-11T07:11:42.185Z,95.43
2023-01-11T07:16:43.787Z,93.61
2023-01-11T07:21:45.475Z,93.30
2023-01-11T07:26:47.101Z,92.54
2023-01-11T07:31:48.741Z,92.28
2023-01-11T07:36:50.493Z,92.11
2023-01-11T07:42:10.473Z,89.62
2023-01-11T07:47:12.082Z,90.23
2023-01-11T07:52:13.743Z,86.55
2023-01-11T07:57:15.342Z,86.39
2023-01-11T08:02:20.107Z,85.18
2023-01-11T08:07:21.747Z,84.47
2023-01-11T08:12:42.130Z,84.22
2023-01-11T08:17:43.735Z,84.17
2023-01-11T08:22:45.390Z,84.58
2023-01-11T08:27:46.992Z,84.10
2023-01-11T08:32:48.665Z,84.59
2023-01-11T08:37:50.291Z,83.36
2023-01-11T08:42:56.711Z,82.90
2023-01-11T08:47:59.726Z,82.97
2023-01-11T08:53:01.328Z,82.08
2023-01-11T08:58:03.108Z,81.55
2023-01-11T09:03:04.761Z,81.21
2023-01-11T09:08:07.700Z,80.86
2023-01-11T09:13:09.307Z,81.51
2023-01-11T09:18:10.897Z,80.64
2023-01-11T09:23:12.499Z,81.14
2023-01-11T09:28:14.196Z,81.24
2023-01-11T09:33:15.850Z,80.53
2023-01-11T09:38:17.667Z,81.06
2023-01-11T09:43:24.868Z,80.98
2023-01-11T09:48:37.799Z,80.58
2023-01-11T09:53:40.857Z,80.36
2023-01-11T09:59:00.252Z,80.09
2023-01-11T10:04:15.994Z,80.30
2023-01-11T10:18:28.495Z,79.97
2023-01-11T10:21:19.686Z,79.61
2023-01-11T10:26:28.422Z,79.29
2023-01-11T11:30:46.915Z,80.36
2023-01-11T11:35:56.668Z,79.93
2023-01-11T11:41:06.871Z,80.39
2023-01-11T11:46:18.656Z,80.60
2023-01-11T11:51:23.364Z,80.69
2023-01-11T11:56:29.180Z,81.40
2023-01-11T12:01:34.195Z,81.46
2023-01-11T12:06:35.917Z,81.21
2023-01-11T12:11:42.152Z,81.49
2023-01-11T12:16:45.509Z,81.71
2023-01-11T12:21:47.157Z,81.37
2023-01-11T12:26:58.031Z,81.20
2023-01-11T12:32:21.217Z,80.87
2023-01-11T12:37:43.862Z,80.19
2023-01-11T12:43:22.187Z,79.96
2023-01-11T12:48:51.047Z,80.71
2023-01-11T12:54:06.976Z,80.91
2023-01-11T12:59:08.533Z,80.91
2023-01-11T13:04:25.224Z,80.67
2023-01-11T13:09:49.674Z,81.32
2023-01-11T13:15:23.814Z,81.43
2023-01-11T13:21:07.283Z,81.99
2023-01-11T13:26:30.939Z,82.73
2023-01-11T13:31:34.895Z,83.60
2023-01-11T13:36:43.491Z,84.65
2023-01-11T13:41:49.815Z,84.59
2023-01-11T13:47:13.322Z,85.56
2023-01-11T13:52:17.956Z,87.29
2023-01-11T13:57:31.913Z,89.81
2023-01-11T14:02:42.244Z,89.90
2023-01-11T14:08:00.864Z,90.77
2023-01-11T14:13:47.853Z,91.31
2023-01-11T14:19:05.341Z,93.54
2023-01-11T14:24:09.172Z,95.79
2023-01-11T14:29:26.967Z,97.45
2023-01-11T14:35:07.779Z,98.33
2023-01-11T14:40:24.334Z,99.24
2023-01-11T14:45:50.503Z,99.32
2023-01-11T14:51:09.546Z,100.00
2023-01-11T14:56:46.425Z,100.00
2023-01-11T15:02:07.712Z,100.00
2023-01-11T15:07:30.958Z,100.00
2023-01-11T15:12:38.550Z,100.00
2023-01-11T15:18:00.232Z,100.00
2023-01-11T15:23:04.666Z,100.00
2023-01-11T15:28:43.051Z,100.00
2023-01-11T15:33:49.082Z,100.00
2023-01-11T15:39:07.076Z,100.00
2023-01-11T15:44:33.437Z,100.00
2023-01-11T15:49:34.995Z,100.00
2023-01-11T15:55:11.132Z,100.00
2023-01-11T16:00:31.084Z,100.00
2023-01-11T16:05:39.804Z,100.00
2023-01-11T16:11:08.481Z,100.00
2023-01-11T16:16:22.765Z,100.00
2023-01-11T16:21:33.633Z,100.00
2023-01-11T16:26:40.928Z,100.00
2023-01-11T16:32:06.937Z,100.00
2023-01-11T16:37:31.615Z,100.00
2023-01-11T16:42:38.722Z,100.00
2023-01-11T16:47:40.436Z,100.00
2023-01-11T16:53:06.196Z,100.00
2023-01-11T16:58:25.634Z,100.00
2023-01-11T17:03:51.566Z,100.00
2023-01-11T17:08:56.421Z,100.00
2023-01-11T17:14:25.658Z,100.00
2023-01-11T17:19:30.893Z,100.00
2023-01-11T17:24:39.956Z,100.00
2023-01-11T17:29:42.927Z,100.00
2023-01-11T17:34:45.136Z,100.00
2023-01-11T17:39:50.081Z,100.00
2023-01-11T17:45:12.870Z,100.00
2023-01-11T17:50:26.681Z,100.00
2023-01-11T17:55:28.325Z,100.00
2023-01-11T18:00:29.993Z,100.00
2023-01-11T18:05:31.617Z,100.00
2023-01-11T18:10:39.344Z,100.00
2023-01-11T18:15:47.277Z,100.00
2023-01-11T18:20:49.050Z,100.00
2023-01-11T18:26:10.639Z,100.00
2023-01-11T18:31:12.400Z,100.00
2023-01-11T18:36:22.120Z,100.00
2023-01-11T18:41:44.530Z,100.00
2023-01-11T18:46:46.388Z,100.00
2023-01-11T18:51:48.008Z,100.00
2023-01-11T18:56:49.642Z,100.00
2023-01-11T19:02:04.509Z,100.00
2023-01-11T19:07:14.278Z,100.00
2023-01-11T19:12:16.584Z,100.00
2023-01-11T19:17:18.388Z,100.00
2023-01-11T19:22:23.347Z,100.00
2023-01-11T19:27:27.995Z,100.00
2023-01-11T19:32:29.630Z,100.00
2023-01-11T19:37:32.466Z,100.00
2023-01-11T19:42:34.171Z,100.00
2023-01-11T19:47:35.799Z,100.00
2023-01-11T19:52:37.415Z,100.00
2023-01-11T19:57:40.813Z,100.00
2023-01-11T20:02:42.638Z,100.00
2023-01-11T20:07:44.317Z,100.00
2023-01-11T20:12:47.369Z,100.00
2023-01-11T20:17:48.989Z,100.00
2023-01-11T20:22:51.103Z,100.00
2023-01-11T20:27:52.853Z,100.00
2023-01-11T20:32:54.475Z,100.00
2023-01-11T20:37:56.146Z,100.00
2023-01-11T20:42:57.816Z,100.00
2023-01-11T20:47:59.571Z,100.00
2023-01-11T20:53:01.219Z,100.00
2023-01-11T20:58:02.812Z,100.00
2023-01-11T21:03:04.504Z,100.00
2023-01-11T21:08:06.158Z,100.00
2023-01-11T21:18:09.268Z,100.00
2023-01-11T21:23:15.246Z,99.63
2023-01-11T21:28:16.793Z,99.00
2023-01-11T21:33:18.429Z,97.84
2023-01-11T21:38:20.032Z,97.16
2023-01-11T21:43:21.621Z,96.50
2023-01-11T21:48:23.381Z,96.94
2023-01-11T21:53:28.722Z,95.03
2023-01-11T21:58:30.369Z,94.71
2023-01-11T22:03:32.018Z,94.02
2023-01-11T22:08:38.576Z,94.57
2023-01-11T22:13:40.661Z,94.07
2023-01-11T22:18:43.951Z,93.67
2023-01-11T22:23:47.470Z,92.86
2023-01-11T22:29:12.008Z,93.20
2023-01-11T22:34:14.821Z,92.29
2023-01-11T22:39:19.351Z,92.25
2023-01-11T22:44:21.167Z,92.45
2023-01-11T22:49:22.764Z,91.48
2023-01-11T22:54:24.435Z,91.85
2023-01-11T22:59:26.056Z,91.99
2023-01-11T23:04:27.675Z,91.90
2023-01-11T23:09:29.254Z,91.49
2023-01-11T23:14:32.926Z,91.22
2023-01-11T23:19:37.249Z,91.36
2023-01-11T23:24:39.094Z,91.12
2023-01-11T23:29:40.677Z,89.68
2023-01-11T23:34:42.294Z,88.97
2023-01-11T23:39:43.940Z,89.70
2023-01-11T23:44:46.997Z,89.02
2023-01-11T23:49:49.968Z,89.01
2023-01-11T23:54:52.135Z,88.24
2023-01-11T23:59:53.733Z,88.94
